Mulberry, Florida
Current Conditions -  °F | °C
As of 10:53 AM on Wednesday 22 Oct 2014 (Local Time) from KLAL Reporting Station
Scattered Clouds Scattered Clouds  
Wind Chill: 75°   Ceiling: Unl
Heat Index: 75°   Visibility: 12mi
Dew Point: 63°   Wind: 7mph
Humidity: 65%   Direction: 60°ENE
Pressure: 30.02"   Gusts: NA
Location:  27.9°N, 81.97°W
Report Text: KLAL 221453Z 06006KT 12SM SCT250 24/17 A3002
Loading
Personal Weather Stations






























Interactive Weather Map
Tropical Storm Tracking
New forecast layout! Learn more

10-Day Weather Forecast

Advertisements
Track Severe Weather on mobile